createdAt,value
2023-04-13T00:00:42.100Z,0.65
2023-04-13T00:03:12.754Z,0.52
2023-04-13T00:05:40.475Z,0.57
2023-04-13T00:08:08.311Z,0.30
2023-04-13T00:10:36.429Z,0.60
2023-04-13T00:13:05.083Z,0.40
2023-04-13T00:15:32.604Z,0.50
2023-04-13T00:17:59.918Z,2.00
2023-04-13T00:20:27.107Z,0.60
2023-04-13T00:22:54.370Z,0.40
2023-04-13T00:25:21.690Z,0.50
2023-04-13T00:27:52.929Z,0.40
2023-04-13T00:30:21.295Z,0.57
2023-04-13T00:32:48.771Z,0.40
2023-04-13T00:35:20.005Z,0.50
2023-04-13T00:37:47.385Z,0.40
2023-04-13T00:40:18.085Z,0.30
2023-04-13T00:42:48.995Z,0.30
2023-04-13T00:45:18.078Z,0.30
2023-04-13T00:47:48.862Z,0.30
2023-04-13T00:50:18.253Z,0.28
2023-04-13T00:52:46.371Z,0.20
2023-04-13T00:55:14.901Z,0.30
2023-04-13T00:57:42.270Z,0.15
2023-04-13T01:00:09.918Z,0.40
2023-04-13T01:02:41.980Z,0.30
2023-04-13T01:05:12.833Z,0.20
2023-04-13T01:07:44.923Z,0.17
2023-04-13T01:10:18.282Z,0.38
2023-04-13T01:12:46.010Z,0.25
2023-04-13T01:15:14.364Z,0.45
2023-04-13T01:17:44.080Z,0.32
2023-04-13T01:20:12.698Z,0.47
2023-04-13T01:22:42.762Z,0.20
2023-04-13T01:25:11.395Z,0.20
2023-04-13T01:27:55.638Z,0.20
2023-04-13T01:30:26.045Z,0.20
2023-04-13T01:32:53.601Z,0.30
2023-04-13T01:35:25.514Z,0.15
2023-04-13T01:37:53.584Z,0.35
2023-04-13T01:40:21.503Z,0.30
2023-04-13T01:42:48.630Z,0.22
2023-04-13T01:45:22.077Z,0.20
2023-04-13T01:47:59.455Z,0.25
2023-04-13T01:50:30.769Z,0.17
2023-04-13T01:53:17.334Z,0.30
2023-04-13T01:55:45.288Z,0.10
2023-04-13T01:58:14.250Z,0.20
2023-04-13T02:00:42.573Z,0.30
2023-04-13T02:03:10.535Z,0.15
2023-04-13T02:05:38.057Z,0.10
2023-04-13T02:08:06.474Z,0.10
2023-04-13T02:10:34.577Z,0.40
2023-04-13T02:13:02.010Z,0.20
2023-04-13T02:15:29.177Z,0.40
2023-04-13T02:17:56.368Z,0.43
2023-04-13T02:20:23.558Z,0.30
2023-04-13T02:22:50.694Z,0.20
2023-04-13T02:25:18.944Z,0.32
2023-04-13T02:27:46.068Z,0.43
2023-04-13T02:30:13.348Z,0.30
2023-04-13T02:32:41.730Z,0.40
2023-04-13T02:35:12.450Z,0.20
2023-04-13T02:37:40.292Z,0.20
2023-04-13T02:40:10.584Z,0.10
2023-04-13T02:42:38.538Z,0.22
2023-04-13T02:45:07.445Z,0.40
2023-04-13T02:47:34.944Z,0.40
2023-04-13T02:50:02.452Z,0.22
2023-04-13T02:52:29.689Z,0.30
2023-04-13T02:54:56.889Z,0.25
2023-04-13T02:57:25.210Z,0.30
2023-04-13T02:59:53.167Z,0.38
2023-04-13T03:02:21.974Z,0.38
2023-04-13T03:04:49.383Z,0.30
2023-04-13T03:07:17.070Z,0.28
2023-04-13T03:09:44.823Z,0.10
2023-04-13T03:12:12.177Z,0.30
2023-04-13T03:14:39.502Z,0.22
2023-04-13T03:17:11.529Z,0.30
2023-04-13T03:19:38.850Z,0.30
2023-04-13T03:22:06.004Z,0.30
2023-04-13T03:24:35.112Z,0.40
2023-04-13T03:27:02.845Z,0.40
2023-04-13T03:29:30.004Z,0.30
2023-04-13T03:31:57.188Z,0.30
2023-04-13T03:34:24.365Z,0.35
2023-04-13T03:36:51.901Z,0.20
2023-04-13T03:39:19.128Z,0.40
2023-04-13T03:41:46.326Z,0.68
2023-04-13T03:44:13.422Z,0.45
2023-04-13T03:46:40.987Z,0.57
2023-04-13T03:49:09.066Z,0.30
2023-04-13T03:51:36.851Z,0.30
2023-04-13T03:54:04.317Z,0.30
2023-04-13T03:56:31.685Z,0.40
2023-04-13T03:58:59.224Z,0.43
2023-04-13T04:01:27.285Z,0.50
2023-04-13T04:03:57.310Z,0.57
2023-04-13T04:06:25.246Z,0.40
2023-04-13T04:08:52.533Z,0.40
2023-04-13T04:11:19.697Z,0.30
2023-04-13T04:13:46.872Z,0.30
2023-04-13T04:16:14.067Z,0.47
2023-04-13T04:18:41.598Z,0.40
2023-04-13T04:21:08.926Z,0.60
2023-04-13T04:23:38.011Z,0.50
2023-04-13T04:26:05.559Z,0.50
2023-04-13T04:28:38.641Z,0.50
2023-04-13T04:31:12.289Z,0.50
2023-04-13T04:33:39.525Z,0.40
2023-04-13T04:36:10.401Z,0.32
2023-04-13T04:38:37.959Z,0.30
2023-04-13T04:41:05.249Z,0.30
2023-04-13T04:43:32.549Z,0.20
2023-04-13T04:46:03.172Z,0.40
2023-04-13T04:48:31.077Z,0.30
2023-04-13T04:50:58.498Z,0.35
2023-04-13T04:53:26.133Z,0.40
2023-04-13T04:55:53.320Z,0.28
2023-04-13T04:58:20.738Z,0.40
2023-04-13T05:00:48.032Z,0.45
2023-04-13T05:03:15.725Z,0.50
2023-04-13T05:05:43.869Z,0.45
2023-04-13T05:08:11.737Z,0.38
2023-04-13T05:10:43.605Z,0.40
2023-04-13T05:13:10.770Z,0.40
2023-04-13T05:15:37.893Z,0.40
2023-04-13T05:18:06.068Z,0.45
2023-04-13T05:20:34.724Z,0.80
2023-04-13T05:23:03.046Z,0.60
2023-04-13T05:25:30.354Z,0.60
2023-04-13T05:27:57.578Z,0.50
2023-04-13T05:30:24.725Z,0.40
2023-04-13T05:32:52.045Z,0.47
2023-04-13T05:35:19.328Z,0.38
2023-04-13T05:37:46.680Z,0.43
2023-04-13T05:40:15.001Z,0.30
2023-04-13T05:42:43.457Z,0.47
2023-04-13T05:45:10.844Z,0.30
2023-04-13T05:47:40.046Z,0.50
2023-04-13T05:50:07.926Z,0.60
2023-04-13T05:52:35.108Z,0.40
2023-04-13T05:55:02.336Z,0.57
2023-04-13T05:57:29.497Z,0.50
2023-04-13T05:59:56.656Z,0.40
2023-04-13T06:02:26.379Z,0.38
2023-04-13T06:04:54.945Z,0.50
2023-04-13T06:07:22.944Z,0.40
2023-04-13T06:09:50.079Z,0.40
2023-04-13T06:12:18.292Z,0.80
2023-04-13T06:14:45.506Z,0.63
2023-04-13T06:17:12.663Z,0.30
2023-04-13T06:19:39.881Z,0.45
2023-04-13T06:22:07.433Z,0.55
2023-04-13T06:24:34.620Z,0.43
2023-04-13T06:27:01.882Z,0.52
2023-04-13T06:29:29.292Z,0.40
2023-04-13T06:31:56.569Z,0.40
2023-04-13T06:34:23.968Z,0.98
2023-04-13T06:36:51.419Z,0.60
2023-04-13T06:39:18.551Z,0.60
2023-04-13T06:41:46.128Z,0.80
2023-04-13T06:44:13.402Z,0.80
2023-04-13T06:46:40.646Z,0.50
2023-04-13T06:49:07.891Z,0.60
2023-04-13T06:51:35.106Z,0.70
2023-04-13T06:54:02.353Z,0.52
2023-04-13T06:56:29.557Z,0.73
2023-04-13T06:59:02.685Z,0.45
2023-04-13T07:01:30.588Z,0.70
2023-04-13T07:03:58.966Z,0.60
2023-04-13T07:06:26.523Z,0.75
2023-04-13T07:08:53.670Z,0.55
2023-04-13T07:11:20.873Z,0.70
2023-04-13T07:13:48.018Z,0.80
2023-04-13T07:16:15.799Z,0.70
2023-04-13T07:18:42.944Z,0.80
2023-04-13T07:21:10.238Z,0.50
2023-04-13T07:23:37.525Z,0.93
2023-04-13T07:26:04.809Z,0.80
2023-04-13T07:28:31.917Z,0.90
2023-04-13T07:30:59.105Z,0.98
2023-04-13T07:33:26.312Z,1.00
2023-04-13T07:35:55.662Z,0.88
2023-04-13T07:38:22.885Z,0.88
2023-04-13T07:40:50.054Z,0.65
2023-04-13T07:43:19.259Z,0.82
2023-04-13T07:45:47.524Z,0.70
2023-04-13T07:48:14.712Z,0.65
2023-04-13T07:50:42.628Z,0.65
2023-04-13T07:53:09.955Z,1.10
2023-04-13T07:55:38.003Z,0.75
2023-04-13T07:58:05.302Z,0.57
2023-04-13T08:00:32.455Z,1.10
2023-04-13T08:02:59.698Z,0.73
2023-04-13T08:05:26.980Z,1.02
2023-04-13T08:07:54.169Z,0.98
2023-04-13T08:10:21.441Z,1.05
2023-04-13T08:12:48.589Z,0.90
2023-04-13T08:15:15.773Z,0.73
2023-04-13T08:17:43.024Z,0.77
2023-04-13T08:20:10.273Z,1.00
2023-04-13T08:22:37.526Z,1.65
2023-04-13T08:25:07.090Z,0.80
2023-04-13T08:27:34.266Z,0.98
2023-04-13T08:30:02.388Z,0.77
2023-04-13T08:32:29.868Z,1.25
2023-04-13T08:34:57.027Z,0.90
2023-04-13T08:37:24.692Z,1.15
2023-04-13T08:39:56.633Z,1.33
2023-04-13T08:42:26.833Z,0.70
2023-04-13T08:45:03.711Z,0.82
2023-04-13T08:47:31.004Z,0.60
2023-04-13T08:49:59.088Z,0.82
2023-04-13T08:52:26.793Z,0.90
2023-04-13T08:54:55.676Z,0.80
2023-04-13T08:57:23.278Z,0.90
2023-04-13T08:59:52.216Z,0.70
2023-04-13T09:02:26.222Z,0.80
2023-04-13T09:04:54.931Z,0.70
2023-04-13T09:07:32.755Z,1.00
2023-04-13T09:10:00.400Z,0.55
2023-04-13T09:12:28.331Z,1.05
2023-04-13T09:14:56.019Z,0.95
2023-04-13T09:17:32.365Z,1.20
2023-04-13T09:20:12.828Z,0.60
2023-04-13T09:22:40.022Z,0.75
2023-04-13T09:25:07.419Z,0.80
2023-04-13T09:27:36.003Z,0.68
2023-04-13T09:30:04.321Z,1.10
2023-04-13T09:32:31.519Z,0.70
2023-04-13T09:35:05.889Z,0.82
2023-04-13T09:37:34.170Z,0.65
2023-04-13T09:40:11.626Z,0.85
2023-04-13T09:42:39.834Z,0.80
2023-04-13T09:45:07.237Z,0.90
2023-04-13T09:47:38.910Z,0.70
2023-04-13T09:50:07.096Z,0.70
2023-04-13T09:52:34.305Z,0.70
2023-04-13T09:55:01.521Z,1.17
2023-04-13T09:57:30.041Z,0.77
2023-04-13T10:00:00.520Z,0.70
2023-04-13T10:02:28.436Z,0.80
2023-04-13T10:04:56.476Z,0.70
2023-04-13T10:07:26.911Z,0.63
2023-04-13T10:09:55.004Z,0.80
2023-04-13T10:12:23.141Z,0.82
2023-04-13T10:14:51.875Z,1.00
2023-04-13T10:17:19.108Z,0.77
2023-04-13T10:19:50.829Z,0.77
2023-04-13T10:22:20.170Z,0.93
2023-04-13T10:24:47.397Z,1.25
2023-04-13T10:27:14.542Z,0.70
2023-04-13T10:29:41.717Z,0.82
2023-04-13T10:32:09.067Z,0.82
2023-04-13T10:34:39.699Z,0.75
2023-04-13T10:37:16.332Z,0.82
2023-04-13T10:39:43.491Z,0.60
2023-04-13T10:42:12.900Z,0.60
2023-04-13T10:44:47.171Z,0.80
2023-04-13T10:47:15.160Z,0.70
2023-04-13T10:49:42.717Z,0.73
2023-04-13T10:52:11.094Z,0.60
2023-04-13T10:54:39.334Z,0.75
2023-04-13T10:57:08.993Z,0.82
2023-04-13T10:59:49.144Z,0.73
2023-04-13T11:02:25.915Z,0.70
2023-04-13T11:04:53.535Z,0.80
2023-04-13T11:07:26.094Z,0.90
2023-04-13T11:10:02.873Z,1.00
2023-04-13T11:12:30.435Z,0.70
2023-04-13T11:14:57.608Z,1.40
2023-04-13T11:17:24.831Z,1.08
2023-04-13T11:19:52.777Z,0.70
2023-04-13T11:22:23.505Z,0.98
2023-04-13T11:24:51.532Z,0.82
2023-04-13T11:27:18.717Z,0.65
2023-04-13T11:29:46.027Z,0.70
2023-04-13T11:32:18.814Z,0.65
2023-04-13T11:34:49.454Z,1.23
2023-04-13T11:37:16.683Z,0.80
2023-04-13T11:39:44.032Z,1.00
2023-04-13T11:42:12.264Z,1.00
2023-04-13T11:44:39.752Z,0.90
2023-04-13T11:47:08.902Z,1.38
2023-04-13T11:49:36.731Z,0.55
2023-04-13T11:52:04.049Z,1.10
2023-04-13T11:54:31.704Z,0.82
2023-04-13T11:56:59.034Z,1.00
2023-04-13T11:59:26.406Z,1.08
2023-04-13T12:02:02.287Z,0.68
2023-04-13T12:04:41.304Z,0.90
2023-04-13T12:07:14.042Z,1.00
2023-04-13T12:09:56.207Z,0.70
2023-04-13T12:15:15.396Z,0.90
2023-04-13T12:17:59.952Z,0.70
2023-04-13T12:20:39.812Z,0.77
2023-04-13T12:23:22.790Z,1.25
2023-04-13T12:25:56.533Z,0.73
2023-04-13T12:28:28.386Z,0.70
2023-04-13T12:30:55.726Z,0.70
2023-04-13T12:33:23.068Z,0.75
2023-04-13T12:35:50.205Z,0.73
2023-04-13T12:38:17.490Z,0.80
2023-04-13T12:40:44.890Z,1.17
2023-04-13T12:43:12.016Z,0.68
2023-04-13T12:45:39.201Z,0.80
2023-04-13T12:48:08.627Z,1.27
2023-04-13T12:50:35.910Z,0.77
2023-04-13T12:53:03.034Z,0.77
2023-04-13T12:55:30.680Z,0.80
2023-04-13T12:57:58.606Z,0.75
2023-04-13T13:00:25.791Z,1.10
2023-04-13T13:03:02.827Z,0.80
2023-04-13T13:05:37.610Z,1.00
2023-04-13T13:08:04.789Z,0.70
2023-04-13T13:10:31.968Z,0.80
2023-04-13T13:13:00.568Z,0.75
2023-04-13T13:15:27.724Z,5.40
2023-04-13T13:17:55.004Z,1.00
2023-04-13T13:20:22.244Z,0.90
2023-04-13T13:22:49.457Z,0.70
2023-04-13T13:25:17.057Z,1.23
2023-04-13T13:30:14.403Z,1.02
2023-04-13T13:32:41.618Z,1.00
2023-04-13T13:35:09.099Z,0.82
2023-04-13T13:37:36.941Z,0.70
2023-04-13T13:40:12.868Z,1.02
2023-04-13T13:42:51.150Z,1.13
2023-04-13T13:45:19.858Z,1.17
2023-04-13T13:47:49.560Z,1.40
2023-04-13T13:50:16.866Z,1.10
2023-04-13T13:52:55.669Z,1.45
2023-04-13T13:55:29.231Z,1.60
2023-04-13T13:57:56.579Z,1.13
2023-04-13T14:00:23.876Z,1.25
2023-04-13T14:02:51.577Z,1.23
2023-04-13T14:05:18.950Z,1.13
2023-04-13T14:07:46.761Z,1.20
2023-04-13T14:10:14.046Z,0.98
2023-04-13T14:12:46.868Z,1.05
2023-04-13T14:15:15.690Z,1.50
2023-04-13T14:20:29.585Z,1.10
2023-04-13T14:22:57.790Z,1.10
2023-04-13T14:25:24.917Z,1.15
2023-04-13T14:27:52.224Z,1.35
2023-04-13T14:30:19.482Z,1.42
2023-04-13T14:32:47.016Z,1.50
2023-04-13T14:35:14.385Z,1.10
2023-04-13T14:37:41.842Z,1.15
2023-04-13T14:40:14.204Z,1.20
2023-04-13T14:42:41.622Z,1.02
2023-04-13T14:45:11.346Z,1.17
2023-04-13T14:47:39.729Z,1.10
2023-04-13T14:50:08.247Z,1.63
2023-04-13T14:52:35.594Z,1.38
2023-04-13T14:55:04.277Z,0.95
2023-04-13T14:57:32.394Z,1.00
2023-04-13T14:59:59.611Z,1.30
2023-04-13T15:02:28.575Z,1.05
2023-04-13T15:04:56.258Z,1.10
2023-04-13T15:07:43.037Z,1.05
2023-04-13T15:10:10.251Z,1.23
2023-04-13T15:12:37.791Z,0.88
2023-04-13T15:15:05.443Z,1.42
2023-04-13T15:17:32.961Z,1.02
2023-04-13T15:20:00.215Z,1.20
2023-04-13T15:22:27.371Z,1.40
2023-04-13T15:24:54.519Z,1.08
2023-04-13T15:27:21.661Z,1.13
2023-04-13T15:29:48.866Z,0.98
2023-04-13T15:32:16.377Z,1.10
2023-04-13T15:34:43.573Z,1.20
2023-04-13T15:37:10.705Z,0.85
2023-04-13T15:39:37.889Z,1.33
2023-04-13T15:42:05.308Z,1.33
2023-04-13T15:44:32.442Z,1.35
2023-04-13T15:47:02.431Z,1.02
2023-04-13T15:49:32.006Z,1.10
2023-04-13T15:51:59.273Z,1.33
2023-04-13T15:54:26.447Z,1.00
2023-04-13T15:56:53.726Z,0.98
2023-04-13T15:59:21.094Z,1.70
2023-04-13T16:01:49.530Z,1.20
2023-04-13T16:04:17.196Z,1.20
2023-04-13T16:06:44.458Z,1.25
2023-04-13T16:09:11.659Z,1.35
2023-04-13T16:11:40.507Z,1.60
2023-04-13T16:14:07.809Z,1.50
2023-04-13T16:16:47.023Z,1.38
2023-04-13T16:19:18.616Z,1.33
2023-04-13T16:21:46.276Z,0.90
2023-04-13T16:24:13.513Z,1.10
2023-04-13T16:26:40.785Z,1.23
2023-04-13T16:29:08.216Z,1.15
2023-04-13T16:31:35.570Z,1.58
2023-04-13T16:34:11.749Z,1.23
2023-04-13T16:36:49.848Z,1.30
2023-04-13T16:39:17.103Z,1.20
2023-04-13T16:41:44.427Z,1.02
2023-04-13T16:44:11.616Z,1.05
2023-04-13T16:46:38.866Z,1.50
2023-04-13T16:49:06.219Z,0.93
2023-04-13T16:51:33.473Z,1.00
2023-04-13T16:54:00.718Z,0.85
2023-04-13T16:56:31.223Z,1.13
2023-04-13T16:58:58.663Z,1.50
2023-04-13T17:01:26.869Z,1.20
2023-04-13T17:03:54.303Z,1.17
2023-04-13T17:06:21.530Z,1.20
2023-04-13T17:08:48.840Z,1.17
2023-04-13T17:11:16.074Z,1.10
2023-04-13T17:13:43.225Z,1.27
2023-04-13T17:16:10.890Z,1.17
2023-04-13T17:18:38.064Z,1.27
2023-04-13T17:21:05.347Z,1.13
2023-04-13T17:23:32.491Z,1.20
2023-04-13T17:25:59.710Z,1.10
2023-04-13T17:28:27.096Z,1.17
2023-04-13T17:30:54.420Z,1.27
2023-04-13T17:33:24.154Z,1.30
2023-04-13T17:35:54.689Z,1.08
2023-04-13T17:38:21.854Z,1.00
2023-04-13T17:40:50.830Z,1.20
2023-04-13T17:43:18.286Z,1.40
2023-04-13T17:45:46.127Z,1.00
2023-04-13T17:48:13.553Z,1.10
2023-04-13T17:50:40.739Z,1.10
2023-04-13T17:53:07.899Z,1.27
2023-04-13T17:55:37.448Z,1.40
2023-04-13T17:58:04.655Z,1.58
2023-04-13T18:00:31.842Z,1.25
2023-04-13T18:02:59.092Z,1.10
2023-04-13T18:05:26.735Z,1.23
2023-04-13T18:07:53.975Z,1.10
2023-04-13T18:10:21.143Z,1.92
2023-04-13T18:12:48.333Z,1.00
2023-04-13T18:15:15.499Z,1.33
2023-04-13T18:17:42.997Z,1.33
2023-04-13T18:20:10.506Z,1.25
2023-04-13T18:22:37.680Z,1.10
2023-04-13T18:25:04.965Z,1.13
2023-04-13T18:27:32.141Z,1.00
2023-04-13T18:29:59.281Z,1.30
2023-04-13T18:32:26.487Z,1.38
2023-04-13T18:34:53.730Z,1.20
2023-04-13T18:37:21.128Z,1.30
2023-04-13T18:39:48.280Z,1.30
2023-04-13T18:42:15.593Z,0.80
2023-04-13T18:44:42.746Z,1.08
2023-04-13T18:47:09.980Z,1.20
2023-04-13T18:49:37.131Z,1.15
2023-04-13T18:52:04.347Z,1.20
2023-04-13T18:54:32.540Z,0.95
2023-04-13T18:56:59.696Z,1.17
2023-04-13T18:59:28.185Z,1.30
2023-04-13T19:01:55.510Z,1.73
2023-04-13T19:04:22.979Z,1.60
2023-04-13T19:06:50.354Z,1.17
2023-04-13T19:09:17.571Z,1.10
2023-04-13T19:11:48.632Z,2.30
2023-04-13T19:14:16.183Z,2.05
2023-04-13T19:16:45.633Z,1.60
2023-04-13T19:19:14.246Z,1.75
2023-04-13T19:21:41.364Z,1.27
2023-04-13T19:24:08.669Z,1.10
2023-04-13T19:26:35.939Z,1.20
2023-04-13T19:29:04.166Z,1.30
2023-04-13T19:31:32.024Z,1.13
2023-04-13T19:33:59.415Z,1.20
2023-04-13T19:36:27.700Z,1.70
2023-04-13T19:38:54.896Z,1.38
2023-04-13T19:41:22.021Z,1.60
2023-04-13T19:43:49.178Z,1.42
2023-04-13T19:46:16.322Z,1.30
2023-04-13T19:48:43.581Z,1.60
2023-04-13T19:51:11.018Z,2.13
2023-04-13T19:53:38.563Z,2.00
2023-04-13T19:56:05.862Z,2.38
2023-04-13T19:58:33.106Z,1.90
2023-04-13T20:01:00.556Z,1.88
2023-04-13T20:03:28.832Z,1.55
2023-04-13T20:05:58.985Z,1.70
2023-04-13T20:08:26.379Z,1.90
2023-04-13T20:10:53.782Z,1.70
2023-04-13T20:13:20.951Z,2.20
2023-04-13T20:15:48.111Z,2.40
2023-04-13T20:18:17.242Z,2.15
2023-04-13T20:20:44.430Z,1.73
2023-04-13T20:23:11.699Z,1.70
2023-04-13T20:25:38.983Z,1.98
2023-04-13T20:28:06.499Z,1.70
2023-04-13T20:30:33.636Z,1.50
2023-04-13T20:33:00.852Z,1.48
2023-04-13T20:35:28.240Z,1.85
2023-04-13T20:37:59.466Z,1.40
2023-04-13T20:40:27.569Z,1.42
2023-04-13T20:42:55.280Z,1.55
2023-04-13T20:45:23.280Z,1.40
2023-04-13T20:47:51.031Z,1.60
2023-04-13T20:50:21.876Z,1.50
2023-04-13T20:52:53.306Z,1.83
2023-04-13T20:55:24.375Z,1.80
2023-04-13T20:57:51.645Z,1.70
2023-04-13T21:00:22.910Z,1.52
2023-04-13T21:02:52.875Z,1.30
2023-04-13T21:05:22.168Z,1.70
2023-04-13T21:07:50.161Z,1.23
2023-04-13T21:10:17.749Z,1.13
2023-04-13T21:12:44.919Z,1.83
2023-04-13T21:15:12.333Z,1.30
2023-04-13T21:17:39.695Z,1.17
2023-04-13T21:20:08.957Z,1.33
2023-04-13T21:22:36.622Z,2.10
2023-04-13T21:25:04.936Z,1.70
2023-04-13T21:27:32.422Z,1.75
2023-04-13T21:30:00.223Z,1.90
2023-04-13T21:32:27.664Z,1.88
2023-04-13T21:34:55.813Z,1.60
2023-04-13T21:37:22.964Z,1.90
2023-04-13T21:39:50.297Z,1.70
2023-04-13T21:42:17.438Z,1.98
2023-04-13T21:44:44.791Z,2.20
2023-04-13T21:47:11.918Z,1.60
2023-04-13T21:49:39.195Z,1.90
2023-04-13T21:52:06.336Z,2.10
2023-04-13T21:54:33.493Z,1.80
2023-04-13T21:57:00.656Z,1.85
2023-04-13T21:59:28.163Z,1.77
2023-04-13T22:01:55.973Z,2.25
2023-04-13T22:04:23.548Z,2.47
2023-04-13T22:06:50.973Z,2.20
2023-04-13T22:09:18.110Z,2.42
2023-04-13T22:11:45.468Z,1.98
2023-04-13T22:14:12.606Z,2.40
2023-04-13T22:16:39.820Z,2.13
2023-04-13T22:19:06.984Z,2.10
2023-04-13T22:21:37.837Z,2.30
2023-04-13T22:24:05.090Z,2.30
2023-04-13T22:26:32.272Z,2.17
2023-04-13T22:28:59.679Z,2.03
2023-04-13T22:31:27.214Z,2.17
2023-04-13T22:33:54.414Z,2.13
2023-04-13T22:36:21.952Z,1.90
2023-04-13T22:38:49.748Z,1.95
2023-04-13T22:41:16.937Z,1.90
2023-04-13T22:43:44.145Z,2.70
2023-04-13T22:46:11.367Z,2.38
2023-04-13T22:48:38.533Z,2.05
2023-04-13T22:51:05.895Z,1.90
2023-04-13T22:53:33.100Z,2.63
2023-04-13T22:56:00.951Z,2.17
2023-04-13T22:58:28.269Z,1.98
2023-04-13T23:00:55.733Z,2.13
2023-04-13T23:03:23.098Z,1.98
2023-04-13T23:05:50.508Z,2.13
2023-04-13T23:08:17.702Z,2.15
2023-04-13T23:10:44.815Z,1.98
2023-04-13T23:13:12.000Z,3.25
2023-04-13T23:15:39.412Z,2.00
2023-04-13T23:18:06.605Z,2.00
2023-04-13T23:20:33.758Z,2.60
2023-04-13T23:23:01.182Z,2.30
2023-04-13T23:25:28.353Z,2.05
2023-04-13T23:27:55.637Z,2.10
2023-04-13T23:30:22.832Z,1.80
2023-04-13T23:32:50.049Z,2.10
2023-04-13T23:35:17.355Z,1.88
2023-04-13T23:37:45.384Z,2.35
2023-04-13T23:40:12.838Z,2.40
2023-04-13T23:42:40.247Z,2.20
2023-04-13T23:45:08.053Z,1.98
2023-04-13T23:47:35.442Z,2.10
2023-04-13T23:50:02.835Z,2.10
2023-04-13T23:52:30.005Z,2.00
2023-04-13T23:54:57.196Z,1.70
2023-04-13T23:57:24.358Z,1.45
2023-04-13T23:59:57.633Z,2.15
